sensor_id;sensor_type;location;lat;lon;timestamp;P1;durP1;ratioP1;P2;durP2;ratioP2
37885;SDS011;23726;52.520;13.434;2022-07-05T00:01:08;10.27;;;7.05;;
37885;SDS011;23726;52.520;13.434;2022-07-05T00:03:34;9.73;;;6.97;;
37885;SDS011;23726;52.520;13.434;2022-07-05T00:06:00;9.80;;;6.45;;
37885;SDS011;23726;52.520;13.434;2022-07-05T00:08:26;9.70;;;6.70;;
37885;SDS011;23726;52.520;13.434;2022-07-05T00:10:52;9.10;;;6.60;;
37885;SDS011;23726;52.520;13.434;2022-07-05T00:13:17;8.70;;;7.20;;
37885;SDS011;23726;52.520;13.434;2022-07-05T00:15:43;10.82;;;6.90;;
37885;SDS011;23726;52.520;13.434;2022-07-05T00:18:08;8.57;;;6.50;;
37885;SDS011;23726;52.520;13.434;2022-07-05T00:20:35;9.65;;;6.95;;
37885;SDS011;23726;52.520;13.434;2022-07-05T00:23:01;9.55;;;6.47;;
37885;SDS011;23726;52.520;13.434;2022-07-05T00:25:27;9.15;;;7.03;;
37885;SDS011;23726;52.520;13.434;2022-07-05T00:27:52;8.90;;;6.80;;
37885;SDS011;23726;52.520;13.434;2022-07-05T00:30:18;11.07;;;6.97;;
37885;SDS011;23726;52.520;13.434;2022-07-05T00:32:45;8.85;;;6.35;;
37885;SDS011;23726;52.520;13.434;2022-07-05T00:35:10;11.32;;;6.78;;
37885;SDS011;23726;52.520;13.434;2022-07-05T00:37:38;8.25;;;6.22;;
37885;SDS011;23726;52.520;13.434;2022-07-05T00:40:04;8.10;;;6.50;;
37885;SDS011;23726;52.520;13.434;2022-07-05T00:42:32;10.00;;;6.47;;
37885;SDS011;23726;52.520;13.434;2022-07-05T00:44:58;9.30;;;6.20;;
37885;SDS011;23726;52.520;13.434;2022-07-05T00:47:23;10.13;;;6.70;;
37885;SDS011;23726;52.520;13.434;2022-07-05T00:49:49;7.95;;;6.38;;
37885;SDS011;23726;52.520;13.434;2022-07-05T00:52:15;7.05;;;6.35;;
37885;SDS011;23726;52.520;13.434;2022-07-05T00:54:42;7.47;;;5.97;;
37885;SDS011;23726;52.520;13.434;2022-07-05T00:57:08;9.88;;;6.03;;
37885;SDS011;23726;52.520;13.434;2022-07-05T00:59:34;9.35;;;6.32;;
37885;SDS011;23726;52.520;13.434;2022-07-05T01:02:00;7.47;;;6.03;;
37885;SDS011;23726;52.520;13.434;2022-07-05T01:04:26;10.43;;;5.95;;
37885;SDS011;23726;52.520;13.434;2022-07-05T01:06:52;8.13;;;6.38;;
37885;SDS011;23726;52.520;13.434;2022-07-05T01:09:19;7.13;;;5.80;;
37885;SDS011;23726;52.520;13.434;2022-07-05T01:11:46;7.32;;;6.10;;
37885;SDS011;23726;52.520;13.434;2022-07-05T01:14:15;7.60;;;6.20;;
37885;SDS011;23726;52.520;13.434;2022-07-05T01:16:42;6.95;;;6.22;;
37885;SDS011;23726;52.520;13.434;2022-07-05T01:19:09;6.93;;;6.22;;
37885;SDS011;23726;52.520;13.434;2022-07-05T01:21:42;6.90;;;6.18;;
37885;SDS011;23726;52.520;13.434;2022-07-05T01:24:10;8.18;;;5.90;;
37885;SDS011;23726;52.520;13.434;2022-07-05T01:26:37;8.82;;;5.93;;
37885;SDS011;23726;52.520;13.434;2022-07-05T01:29:04;9.07;;;6.13;;
37885;SDS011;23726;52.520;13.434;2022-07-05T01:31:30;7.43;;;5.78;;
37885;SDS011;23726;52.520;13.434;2022-07-05T01:33:57;9.43;;;6.10;;
37885;SDS011;23726;52.520;13.434;2022-07-05T01:36:23;7.40;;;5.75;;
37885;SDS011;23726;52.520;13.434;2022-07-05T01:38:49;6.38;;;5.53;;
37885;SDS011;23726;52.520;13.434;2022-07-05T01:41:15;8.38;;;5.70;;
37885;SDS011;23726;52.520;13.434;2022-07-05T01:43:42;9.25;;;5.63;;
37885;SDS011;23726;52.520;13.434;2022-07-05T01:46:08;7.95;;;5.53;;
37885;SDS011;23726;52.520;13.434;2022-07-05T01:48:37;7.18;;;5.97;;
37885;SDS011;23726;52.520;13.434;2022-07-05T01:51:05;7.13;;;5.28;;
37885;SDS011;23726;52.520;13.434;2022-07-05T01:53:46;7.72;;;5.22;;
37885;SDS011;23726;52.520;13.434;2022-07-05T01:56:14;7.43;;;5.43;;
37885;SDS011;23726;52.520;13.434;2022-07-05T01:58:39;6.43;;;5.05;;
37885;SDS011;23726;52.520;13.434;2022-07-05T02:01:06;6.30;;;5.28;;
37885;SDS011;23726;52.520;13.434;2022-07-05T02:03:33;5.70;;;4.80;;
37885;SDS011;23726;52.520;13.434;2022-07-05T02:06:02;6.22;;;4.55;;
37885;SDS011;23726;52.520;13.434;2022-07-05T02:08:28;5.13;;;4.40;;
37885;SDS011;23726;52.520;13.434;2022-07-05T02:10:55;5.97;;;4.50;;
37885;SDS011;23726;52.520;13.434;2022-07-05T02:13:21;5.30;;;4.55;;
37885;SDS011;23726;52.520;13.434;2022-07-05T02:15:46;6.13;;;4.85;;
37885;SDS011;23726;52.520;13.434;2022-07-05T02:18:12;7.50;;;5.03;;
37885;SDS011;23726;52.520;13.434;2022-07-05T02:20:38;6.28;;;4.80;;
37885;SDS011;23726;52.520;13.434;2022-07-05T02:23:05;5.32;;;4.53;;
37885;SDS011;23726;52.520;13.434;2022-07-05T02:25:32;5.22;;;4.72;;
37885;SDS011;23726;52.520;13.434;2022-07-05T02:27:57;5.20;;;4.45;;
37885;SDS011;23726;52.520;13.434;2022-07-05T02:30:25;6.40;;;4.75;;
37885;SDS011;23726;52.520;13.434;2022-07-05T02:32:51;4.55;;;4.03;;
37885;SDS011;23726;52.520;13.434;2022-07-05T02:35:18;5.03;;;4.10;;
37885;SDS011;23726;52.520;13.434;2022-07-05T02:37:43;6.80;;;4.13;;
37885;SDS011;23726;52.520;13.434;2022-07-05T02:40:11;4.60;;;3.92;;
37885;SDS011;23726;52.520;13.434;2022-07-05T02:42:38;6.25;;;4.57;;
37885;SDS011;23726;52.520;13.434;2022-07-05T02:45:05;4.97;;;4.15;;
37885;SDS011;23726;52.520;13.434;2022-07-05T02:47:32;5.03;;;4.13;;
37885;SDS011;23726;52.520;13.434;2022-07-05T02:50:02;4.97;;;4.40;;
37885;SDS011;23726;52.520;13.434;2022-07-05T02:52:29;4.32;;;3.67;;
37885;SDS011;23726;52.520;13.434;2022-07-05T02:54:55;4.45;;;3.67;;
37885;SDS011;23726;52.520;13.434;2022-07-05T02:57:21;5.03;;;4.25;;
37885;SDS011;23726;52.520;13.434;2022-07-05T02:59:46;4.40;;;4.00;;
37885;SDS011;23726;52.520;13.434;2022-07-05T03:02:13;4.32;;;3.63;;
37885;SDS011;23726;52.520;13.434;2022-07-05T03:04:38;4.90;;;3.70;;
37885;SDS011;23726;52.520;13.434;2022-07-05T03:07:04;4.25;;;3.80;;
37885;SDS011;23726;52.520;13.434;2022-07-05T03:09:34;4.13;;;3.72;;
37885;SDS011;23726;52.520;13.434;2022-07-05T03:12:01;4.25;;;3.50;;
37885;SDS011;23726;52.520;13.434;2022-07-05T03:14:27;6.47;;;3.83;;
37885;SDS011;23726;52.520;13.434;2022-07-05T03:16:53;4.35;;;3.50;;
37885;SDS011;23726;52.520;13.434;2022-07-05T03:19:19;4.00;;;3.60;;
37885;SDS011;23726;52.520;13.434;2022-07-05T03:21:44;4.43;;;3.40;;
37885;SDS011;23726;52.520;13.434;2022-07-05T03:24:10;6.30;;;3.95;;
37885;SDS011;23726;52.520;13.434;2022-07-05T03:26:37;4.93;;;3.97;;
37885;SDS011;23726;52.520;13.434;2022-07-05T03:29:06;4.38;;;3.83;;
37885;SDS011;23726;52.520;13.434;2022-07-05T03:31:32;4.82;;;3.90;;
37885;SDS011;23726;52.520;13.434;2022-07-05T03:33:59;4.63;;;3.78;;
37885;SDS011;23726;52.520;13.434;2022-07-05T03:36:25;3.40;;;3.10;;
37885;SDS011;23726;52.520;13.434;2022-07-05T03:38:50;3.90;;;3.15;;
37885;SDS011;23726;52.520;13.434;2022-07-05T03:41:16;3.90;;;3.38;;
37885;SDS011;23726;52.520;13.434;2022-07-05T03:43:42;4.00;;;3.35;;
37885;SDS011;23726;52.520;13.434;2022-07-05T03:46:07;4.45;;;3.50;;
37885;SDS011;23726;52.520;13.434;2022-07-05T03:48:34;3.50;;;3.20;;
37885;SDS011;23726;52.520;13.434;2022-07-05T03:51:00;3.95;;;3.10;;
37885;SDS011;23726;52.520;13.434;2022-07-05T03:53:25;3.83;;;3.42;;
37885;SDS011;23726;52.520;13.434;2022-07-05T03:55:51;4.05;;;3.45;;
37885;SDS011;23726;52.520;13.434;2022-07-05T03:58:16;3.30;;;3.00;;
37885;SDS011;23726;52.520;13.434;2022-07-05T04:00:42;3.50;;;3.20;;
37885;SDS011;23726;52.520;13.434;2022-07-05T04:03:08;3.25;;;2.95;;
37885;SDS011;23726;52.520;13.434;2022-07-05T04:05:34;3.50;;;3.00;;
37885;SDS011;23726;52.520;13.434;2022-07-05T04:08:00;3.88;;;3.40;;
37885;SDS011;23726;52.520;13.434;2022-07-05T04:10:25;5.38;;;3.25;;
37885;SDS011;23726;52.520;13.434;2022-07-05T04:12:51;3.22;;;2.85;;
37885;SDS011;23726;52.520;13.434;2022-07-05T04:15:17;3.78;;;2.90;;
37885;SDS011;23726;52.520;13.434;2022-07-05T04:17:49;3.20;;;2.90;;
37885;SDS011;23726;52.520;13.434;2022-07-05T04:20:16;3.65;;;3.25;;
37885;SDS011;23726;52.520;13.434;2022-07-05T04:22:42;3.53;;;3.22;;
37885;SDS011;23726;52.520;13.434;2022-07-05T04:25:08;3.47;;;3.08;;
37885;SDS011;23726;52.520;13.434;2022-07-05T04:27:49;3.38;;;2.65;;
37885;SDS011;23726;52.520;13.434;2022-07-05T04:30:17;3.22;;;2.63;;
37885;SDS011;23726;52.520;13.434;2022-07-05T04:32:44;3.30;;;2.85;;
37885;SDS011;23726;52.520;13.434;2022-07-05T04:35:09;3.67;;;2.80;;
37885;SDS011;23726;52.520;13.434;2022-07-05T04:37:35;4.22;;;2.75;;
37885;SDS011;23726;52.520;13.434;2022-07-05T04:40:02;3.20;;;2.90;;
37885;SDS011;23726;52.520;13.434;2022-07-05T04:42:29;3.28;;;2.92;;
37885;SDS011;23726;52.520;13.434;2022-07-05T04:44:56;2.95;;;2.70;;
37885;SDS011;23726;52.520;13.434;2022-07-05T04:47:22;4.22;;;2.83;;
37885;SDS011;23726;52.520;13.434;2022-07-05T04:49:47;3.53;;;2.75;;
37885;SDS011;23726;52.520;13.434;2022-07-05T04:52:14;2.70;;;2.50;;
37885;SDS011;23726;52.520;13.434;2022-07-05T04:54:39;3.33;;;3.03;;
37885;SDS011;23726;52.520;13.434;2022-07-05T04:57:06;3.35;;;3.00;;
37885;SDS011;23726;52.520;13.434;2022-07-05T04:59:33;3.10;;;2.80;;
37885;SDS011;23726;52.520;13.434;2022-07-05T05:01:58;2.85;;;2.65;;
37885;SDS011;23726;52.520;13.434;2022-07-05T05:04:24;2.65;;;2.45;;
37885;SDS011;23726;52.520;13.434;2022-07-05T05:06:49;3.20;;;2.90;;
37885;SDS011;23726;52.520;13.434;2022-07-05T05:09:15;3.13;;;2.80;;
37885;SDS011;23726;52.520;13.434;2022-07-05T05:11:41;3.35;;;3.03;;
37885;SDS011;23726;52.520;13.434;2022-07-05T05:14:09;2.58;;;2.38;;
37885;SDS011;23726;52.520;13.434;2022-07-05T05:16:35;2.90;;;2.70;;
37885;SDS011;23726;52.520;13.434;2022-07-05T05:19:00;3.80;;;2.75;;
37885;SDS011;23726;52.520;13.434;2022-07-05T05:21:26;3.00;;;2.80;;
37885;SDS011;23726;52.520;13.434;2022-07-05T05:23:51;3.00;;;2.55;;
37885;SDS011;23726;52.520;13.434;2022-07-05T05:26:17;3.13;;;2.83;;
37885;SDS011;23726;52.520;13.434;2022-07-05T05:28:42;4.35;;;2.72;;
37885;SDS011;23726;52.520;13.434;2022-07-05T05:31:08;2.92;;;2.50;;
37885;SDS011;23726;52.520;13.434;2022-07-05T05:33:35;3.25;;;2.63;;
37885;SDS011;23726;52.520;13.434;2022-07-05T05:36:01;3.38;;;2.90;;
37885;SDS011;23726;52.520;13.434;2022-07-05T05:38:29;3.30;;;2.70;;
37885;SDS011;23726;52.520;13.434;2022-07-05T05:40:54;3.88;;;2.80;;
37885;SDS011;23726;52.520;13.434;2022-07-05T05:43:20;3.65;;;2.85;;
37885;SDS011;23726;52.520;13.434;2022-07-05T05:45:46;2.90;;;2.70;;
37885;SDS011;23726;52.520;13.434;2022-07-05T05:48:11;2.78;;;2.58;;
37885;SDS011;23726;52.520;13.434;2022-07-05T05:50:38;3.17;;;2.40;;
37885;SDS011;23726;52.520;13.434;2022-07-05T05:53:05;2.70;;;2.50;;
37885;SDS011;23726;52.520;13.434;2022-07-05T05:55:31;2.80;;;2.60;;
37885;SDS011;23726;52.520;13.434;2022-07-05T05:58:09;2.83;;;2.50;;
37885;SDS011;23726;52.520;13.434;2022-07-05T06:00:42;3.78;;;2.92;;
37885;SDS011;23726;52.520;13.434;2022-07-05T06:03:09;3.20;;;2.90;;
37885;SDS011;23726;52.520;13.434;2022-07-05T06:05:35;2.67;;;2.40;;
37885;SDS011;23726;52.520;13.434;2022-07-05T06:08:01;2.70;;;2.50;;
37885;SDS011;23726;52.520;13.434;2022-07-05T06:10:30;2.95;;;2.50;;
37885;SDS011;23726;52.520;13.434;2022-07-05T06:12:58;4.00;;;3.10;;
37885;SDS011;23726;52.520;13.434;2022-07-05T06:15:26;2.67;;;2.40;;
37885;SDS011;23726;52.520;13.434;2022-07-05T06:17:52;2.70;;;2.50;;
37885;SDS011;23726;52.520;13.434;2022-07-05T06:20:18;2.80;;;2.60;;
37885;SDS011;23726;52.520;13.434;2022-07-05T06:22:45;2.70;;;2.50;;
37885;SDS011;23726;52.520;13.434;2022-07-05T06:25:12;3.58;;;2.60;;
37885;SDS011;23726;52.520;13.434;2022-07-05T06:27:41;2.72;;;2.38;;
37885;SDS011;23726;52.520;13.434;2022-07-05T06:30:08;2.72;;;2.53;;
37885;SDS011;23726;52.520;13.434;2022-07-05T06:32:37;2.95;;;2.65;;
37885;SDS011;23726;52.520;13.434;2022-07-05T06:35:02;2.63;;;2.40;;
37885;SDS011;23726;52.520;13.434;2022-07-05T06:37:39;2.63;;;2.38;;
37885;SDS011;23726;52.520;13.434;2022-07-05T06:40:11;2.58;;;2.33;;
37885;SDS011;23726;52.520;13.434;2022-07-05T06:42:39;2.90;;;2.50;;
37885;SDS011;23726;52.520;13.434;2022-07-05T06:45:06;2.47;;;2.28;;
37885;SDS011;23726;52.520;13.434;2022-07-05T06:47:32;2.88;;;2.30;;
37885;SDS011;23726;52.520;13.434;2022-07-05T06:49:58;2.53;;;2.33;;
37885;SDS011;23726;52.520;13.434;2022-07-05T06:52:24;2.83;;;2.63;;
37885;SDS011;23726;52.520;13.434;2022-07-05T06:54:49;2.88;;;2.67;;
37885;SDS011;23726;52.520;13.434;2022-07-05T06:57:20;2.67;;;2.47;;
37885;SDS011;23726;52.520;13.434;2022-07-05T06:59:47;2.30;;;2.10;;
37885;SDS011;23726;52.520;13.434;2022-07-05T07:02:13;2.65;;;2.45;;
37885;SDS011;23726;52.520;13.434;2022-07-05T07:04:39;2.80;;;2.60;;
37885;SDS011;23726;52.520;13.434;2022-07-05T07:07:04;2.90;;;2.63;;
37885;SDS011;23726;52.520;13.434;2022-07-05T07:09:50;3.17;;;2.67;;
37885;SDS011;23726;52.520;13.434;2022-07-05T07:12:18;3.20;;;2.58;;
37885;SDS011;23726;52.520;13.434;2022-07-05T07:14:44;5.53;;;2.60;;
37885;SDS011;23726;52.520;13.434;2022-07-05T07:17:11;2.90;;;2.60;;
37885;SDS011;23726;52.520;13.434;2022-07-05T07:19:37;2.53;;;2.33;;
37885;SDS011;23726;52.520;13.434;2022-07-05T07:22:02;2.70;;;2.50;;
37885;SDS011;23726;52.520;13.434;2022-07-05T07:24:28;2.50;;;2.30;;
37885;SDS011;23726;52.520;13.434;2022-07-05T07:26:55;2.72;;;2.53;;
37885;SDS011;23726;52.520;13.434;2022-07-05T07:29:32;2.92;;;2.50;;
37885;SDS011;23726;52.520;13.434;2022-07-05T07:32:03;2.90;;;2.70;;
37885;SDS011;23726;52.520;13.434;2022-07-05T07:34:31;2.40;;;2.20;;
37885;SDS011;23726;52.520;13.434;2022-07-05T07:36:57;2.83;;;2.63;;
37885;SDS011;23726;52.520;13.434;2022-07-05T07:39:23;3.80;;;2.20;;
37885;SDS011;23726;52.520;13.434;2022-07-05T07:41:49;2.75;;;2.03;;
37885;SDS011;23726;52.520;13.434;2022-07-05T07:44:15;2.75;;;2.50;;
37885;SDS011;23726;52.520;13.434;2022-07-05T07:46:41;2.63;;;2.42;;
37885;SDS011;23726;52.520;13.434;2022-07-05T07:49:07;2.60;;;2.40;;
37885;SDS011;23726;52.520;13.434;2022-07-05T07:51:33;3.38;;;2.25;;
37885;SDS011;23726;52.520;13.434;2022-07-05T07:53:59;3.20;;;2.90;;
37885;SDS011;23726;52.520;13.434;2022-07-05T07:56:26;2.50;;;2.30;;
37885;SDS011;23726;52.520;13.434;2022-07-05T07:58:52;2.55;;;2.35;;
37885;SDS011;23726;52.520;13.434;2022-07-05T08:01:18;2.42;;;2.22;;
37885;SDS011;23726;52.520;13.434;2022-07-05T08:03:44;2.85;;;2.40;;
37885;SDS011;23726;52.520;13.434;2022-07-05T08:06:10;2.92;;;2.58;;
37885;SDS011;23726;52.520;13.434;2022-07-05T08:08:40;2.70;;;2.50;;
37885;SDS011;23726;52.520;13.434;2022-07-05T08:11:08;2.72;;;2.53;;
37885;SDS011;23726;52.520;13.434;2022-07-05T08:13:34;3.65;;;2.25;;
37885;SDS011;23726;52.520;13.434;2022-07-05T08:16:00;2.47;;;2.25;;
37885;SDS011;23726;52.520;13.434;2022-07-05T08:18:26;4.50;;;2.60;;
37885;SDS011;23726;52.520;13.434;2022-07-05T08:21:11;4.97;;;2.40;;
37885;SDS011;23726;52.520;13.434;2022-07-05T08:24:09;3.67;;;2.42;;
37885;SDS011;23726;52.520;13.434;2022-07-05T08:26:38;3.40;;;2.30;;
37885;SDS011;23726;52.520;13.434;2022-07-05T08:29:05;2.20;;;2.05;;
37885;SDS011;23726;52.520;13.434;2022-07-05T08:31:33;4.85;;;2.33;;
37885;SDS011;23726;52.520;13.434;2022-07-05T08:34:10;3.33;;;2.42;;
37885;SDS011;23726;52.520;13.434;2022-07-05T08:36:36;2.50;;;2.30;;
37885;SDS011;23726;52.520;13.434;2022-07-05T08:39:04;2.58;;;2.25;;
37885;SDS011;23726;52.520;13.434;2022-07-05T08:41:30;2.70;;;2.40;;
37885;SDS011;23726;52.520;13.434;2022-07-05T08:44:00;2.53;;;2.33;;
37885;SDS011;23726;52.520;13.434;2022-07-05T08:46:27;4.05;;;2.45;;
37885;SDS011;23726;52.520;13.434;2022-07-05T08:48:58;3.60;;;2.23;;
37885;SDS011;23726;52.520;13.434;2022-07-05T08:51:25;2.83;;;2.30;;
37885;SDS011;23726;52.520;13.434;2022-07-05T08:53:54;3.20;;;2.30;;
37885;SDS011;23726;52.520;13.434;2022-07-05T08:56:23;3.15;;;2.40;;
37885;SDS011;23726;52.520;13.434;2022-07-05T08:58:48;3.38;;;2.55;;
37885;SDS011;23726;52.520;13.434;2022-07-05T09:01:14;4.40;;;2.38;;
37885;SDS011;23726;52.520;13.434;2022-07-05T09:03:47;3.05;;;2.17;;
37885;SDS011;23726;52.520;13.434;2022-07-05T09:06:20;4.18;;;2.17;;
37885;SDS011;23726;52.520;13.434;2022-07-05T09:08:48;2.38;;;2.15;;
37885;SDS011;23726;52.520;13.434;2022-07-05T09:11:16;3.53;;;2.08;;
37885;SDS011;23726;52.520;13.434;2022-07-05T09:13:49;2.33;;;2.10;;
37885;SDS011;23726;52.520;13.434;2022-07-05T09:16:16;3.83;;;2.80;;
37885;SDS011;23726;52.520;13.434;2022-07-05T09:18:46;14.25;;;3.88;;
37885;SDS011;23726;52.520;13.434;2022-07-05T09:21:24;15.50;;;3.75;;
37885;SDS011;23726;52.520;13.434;2022-07-05T09:24:07;222.40;;;46.25;;
37885;SDS011;23726;52.520;13.434;2022-07-05T09:26:34;299.55;;;58.08;;
37885;SDS011;23726;52.520;13.434;2022-07-05T09:29:06;237.93;;;44.72;;
37885;SDS011;23726;52.520;13.434;2022-07-05T09:31:34;264.80;;;54.70;;
37885;SDS011;23726;52.520;13.434;2022-07-05T09:34:04;259.98;;;53.28;;
37885;SDS011;23726;52.520;13.434;2022-07-05T09:39:15;297.23;;;62.30;;
37885;SDS011;23726;52.520;13.434;2022-07-05T09:41:42;323.45;;;67.90;;
37885;SDS011;23726;52.520;13.434;2022-07-05T09:44:07;300.23;;;58.50;;
37885;SDS011;23726;52.520;13.434;2022-07-05T09:46:33;268.92;;;54.58;;
37885;SDS011;23726;52.520;13.434;2022-07-05T09:48:59;227.88;;;50.97;;
37885;SDS011;23726;52.520;13.434;2022-07-05T09:51:25;231.55;;;50.15;;
37885;SDS011;23726;52.520;13.434;2022-07-05T09:53:52;212.85;;;47.10;;
37885;SDS011;23726;52.520;13.434;2022-07-05T09:56:19;237.80;;;49.25;;
37885;SDS011;23726;52.520;13.434;2022-07-05T09:58:46;200.88;;;46.83;;
37885;SDS011;23726;52.520;13.434;2022-07-05T10:01:28;207.18;;;44.53;;
37885;SDS011;23726;52.520;13.434;2022-07-05T10:03:57;190.48;;;45.53;;
37885;SDS011;23726;52.520;13.434;2022-07-05T10:06:27;197.30;;;44.13;;
37885;SDS011;23726;52.520;13.434;2022-07-05T10:08:55;193.63;;;45.00;;
37885;SDS011;23726;52.520;13.434;2022-07-05T10:11:21;179.70;;;42.47;;
37885;SDS011;23726;52.520;13.434;2022-07-05T10:13:50;192.70;;;41.90;;
37885;SDS011;23726;52.520;13.434;2022-07-05T10:16:20;170.77;;;42.22;;
37885;SDS011;23726;52.520;13.434;2022-07-05T10:18:50;172.88;;;43.33;;
37885;SDS011;23726;52.520;13.434;2022-07-05T10:21:17;157.25;;;39.53;;
37885;SDS011;23726;52.520;13.434;2022-07-05T10:23:45;154.82;;;40.75;;
37885;SDS011;23726;52.520;13.434;2022-07-05T10:26:16;163.77;;;40.03;;
37885;SDS011;23726;52.520;13.434;2022-07-05T10:28:45;152.38;;;37.25;;
37885;SDS011;23726;52.520;13.434;2022-07-05T10:31:14;148.25;;;38.40;;
37885;SDS011;23726;52.520;13.434;2022-07-05T10:33:42;147.07;;;37.47;;
37885;SDS011;23726;52.520;13.434;2022-07-05T10:36:11;135.20;;;36.10;;
37885;SDS011;23726;52.520;13.434;2022-07-05T10:38:45;140.13;;;35.85;;
37885;SDS011;23726;52.520;13.434;2022-07-05T10:41:12;125.78;;;34.92;;
37885;SDS011;23726;52.520;13.434;2022-07-05T10:43:43;139.38;;;35.50;;
37885;SDS011;23726;52.520;13.434;2022-07-05T10:46:08;113.47;;;33.15;;
37885;SDS011;23726;52.520;13.434;2022-07-05T10:48:34;129.45;;;33.78;;
37885;SDS011;23726;52.520;13.434;2022-07-05T10:58:30;114.93;;;30.63;;
37885;SDS011;23726;52.520;13.434;2022-07-05T11:03:52;102.38;;;31.20;;
37885;SDS011;23726;52.520;13.434;2022-07-05T11:06:27;99.18;;;30.25;;
37885;SDS011;23726;52.520;13.434;2022-07-05T11:09:15;107.93;;;28.90;;
37885;SDS011;23726;52.520;13.434;2022-07-05T11:12:03;99.45;;;29.02;;
37885;SDS011;23726;52.520;13.434;2022-07-05T11:14:30;94.75;;;29.83;;
37885;SDS011;23726;52.520;13.434;2022-07-05T11:19:34;92.93;;;28.30;;
37885;SDS011;23726;52.520;13.434;2022-07-05T11:22:20;91.82;;;29.23;;
37885;SDS011;23726;52.520;13.434;2022-07-05T11:24:45;97.07;;;29.35;;
37885;SDS011;23726;52.520;13.434;2022-07-05T11:27:12;89.88;;;27.10;;
37885;SDS011;23726;52.520;13.434;2022-07-05T11:32:11;80.75;;;26.35;;
37885;SDS011;23726;52.520;13.434;2022-07-05T11:34:39;88.82;;;27.02;;
37885;SDS011;23726;52.520;13.434;2022-07-05T11:42:38;85.53;;;26.63;;
37885;SDS011;23726;52.520;13.434;2022-07-05T11:45:14;73.05;;;24.75;;
37885;SDS011;23726;52.520;13.434;2022-07-05T11:47:40;72.47;;;24.25;;
37885;SDS011;23726;52.520;13.434;2022-07-05T11:50:07;81.53;;;24.80;;
37885;SDS011;23726;52.520;13.434;2022-07-05T11:52:35;80.82;;;24.13;;
37885;SDS011;23726;52.520;13.434;2022-07-05T11:55:08;74.30;;;24.48;;
37885;SDS011;23726;52.520;13.434;2022-07-05T11:57:35;70.55;;;22.75;;
37885;SDS011;23726;52.520;13.434;2022-07-05T12:00:13;74.40;;;23.38;;
37885;SDS011;23726;52.520;13.434;2022-07-05T12:02:49;68.22;;;22.77;;
37885;SDS011;23726;52.520;13.434;2022-07-05T12:05:15;69.85;;;22.80;;
37885;SDS011;23726;52.520;13.434;2022-07-05T12:07:47;63.60;;;23.15;;
37885;SDS011;23726;52.520;13.434;2022-07-05T12:10:17;70.80;;;23.40;;
37885;SDS011;23726;52.520;13.434;2022-07-05T12:13:03;71.13;;;22.67;;
37885;SDS011;23726;52.520;13.434;2022-07-05T12:15:29;60.72;;;20.92;;
37885;SDS011;23726;52.520;13.434;2022-07-05T12:17:56;64.93;;;21.00;;
37885;SDS011;23726;52.520;13.434;2022-07-05T12:20:33;64.55;;;21.55;;
37885;SDS011;23726;52.520;13.434;2022-07-05T12:25:27;60.15;;;20.20;;
37885;SDS011;23726;52.520;13.434;2022-07-05T12:27:55;59.45;;;21.55;;
37885;SDS011;23726;52.520;13.434;2022-07-05T12:30:22;61.03;;;22.05;;
37885;SDS011;23726;52.520;13.434;2022-07-05T12:32:53;66.68;;;21.45;;
37885;SDS011;23726;52.520;13.434;2022-07-05T12:38:09;53.92;;;20.13;;
37885;SDS011;23726;52.520;13.434;2022-07-05T12:40:47;56.78;;;19.25;;
37885;SDS011;23726;52.520;13.434;2022-07-05T12:43:21;54.70;;;19.40;;
37885;SDS011;23726;52.520;13.434;2022-07-05T12:46:00;58.90;;;21.05;;
37885;SDS011;23726;52.520;13.434;2022-07-05T12:48:33;55.75;;;20.48;;
37885;SDS011;23726;52.520;13.434;2022-07-05T12:51:03;53.05;;;19.00;;
37885;SDS011;23726;52.520;13.434;2022-07-05T12:53:30;54.88;;;19.40;;
37885;SDS011;23726;52.520;13.434;2022-07-05T12:56:14;60.88;;;20.05;;
37885;SDS011;23726;52.520;13.434;2022-07-05T12:59:00;55.10;;;18.83;;
37885;SDS011;23726;52.520;13.434;2022-07-05T13:09:13;47.17;;;18.17;;
37885;SDS011;23726;52.520;13.434;2022-07-05T13:11:42;51.60;;;18.13;;
37885;SDS011;23726;52.520;13.434;2022-07-05T13:14:08;48.83;;;17.80;;
37885;SDS011;23726;52.520;13.434;2022-07-05T13:16:33;40.20;;;16.63;;
37885;SDS011;23726;52.520;13.434;2022-07-05T13:19:09;49.90;;;18.45;;
37885;SDS011;23726;52.520;13.434;2022-07-05T13:21:39;45.85;;;17.88;;
37885;SDS011;23726;52.520;13.434;2022-07-05T13:24:04;46.83;;;17.80;;
37885;SDS011;23726;52.520;13.434;2022-07-05T13:26:31;44.80;;;16.50;;
37885;SDS011;23726;52.520;13.434;2022-07-05T13:28:58;43.42;;;16.80;;
37885;SDS011;23726;52.520;13.434;2022-07-05T13:31:24;42.80;;;16.05;;
37885;SDS011;23726;52.520;13.434;2022-07-05T13:33:49;47.13;;;16.83;;
37885;SDS011;23726;52.520;13.434;2022-07-05T13:36:15;49.35;;;17.88;;
37885;SDS011;23726;52.520;13.434;2022-07-05T13:38:41;39.97;;;15.40;;
37885;SDS011;23726;52.520;13.434;2022-07-05T13:41:07;42.78;;;15.65;;
37885;SDS011;23726;52.520;13.434;2022-07-05T13:43:33;43.25;;;15.55;;
37885;SDS011;23726;52.520;13.434;2022-07-05T13:45:59;39.35;;;15.32;;
37885;SDS011;23726;52.520;13.434;2022-07-05T13:48:25;39.03;;;14.77;;
37885;SDS011;23726;52.520;13.434;2022-07-05T13:50:51;35.92;;;14.20;;
37885;SDS011;23726;52.520;13.434;2022-07-05T13:53:17;39.65;;;16.17;;
37885;SDS011;23726;52.520;13.434;2022-07-05T13:55:43;36.97;;;14.57;;
37885;SDS011;23726;52.520;13.434;2022-07-05T13:58:09;37.92;;;14.82;;
37885;SDS011;23726;52.520;13.434;2022-07-05T14:00:35;35.25;;;14.10;;
37885;SDS011;23726;52.520;13.434;2022-07-05T14:03:01;36.88;;;14.70;;
37885;SDS011;23726;52.520;13.434;2022-07-05T14:05:27;35.10;;;14.02;;
37885;SDS011;23726;52.520;13.434;2022-07-05T14:08:00;33.42;;;13.85;;
37885;SDS011;23726;52.520;13.434;2022-07-05T14:10:27;31.42;;;14.55;;
37885;SDS011;23726;52.520;13.434;2022-07-05T14:12:53;29.65;;;13.35;;
37885;SDS011;23726;52.520;13.434;2022-07-05T14:15:19;33.33;;;13.20;;
37885;SDS011;23726;52.520;13.434;2022-07-05T14:17:44;30.20;;;13.23;;
37885;SDS011;23726;52.520;13.434;2022-07-05T14:20:10;31.58;;;13.80;;
37885;SDS011;23726;52.520;13.434;2022-07-05T14:22:37;29.58;;;12.27;;
37885;SDS011;23726;52.520;13.434;2022-07-05T14:25:02;28.30;;;12.95;;
37885;SDS011;23726;52.520;13.434;2022-07-05T14:27:28;30.58;;;12.63;;
37885;SDS011;23726;52.520;13.434;2022-07-05T14:29:54;28.00;;;12.40;;
37885;SDS011;23726;52.520;13.434;2022-07-05T14:32:19;27.70;;;12.50;;
37885;SDS011;23726;52.520;13.434;2022-07-05T14:34:46;29.70;;;12.50;;
37885;SDS011;23726;52.520;13.434;2022-07-05T14:37:12;28.60;;;12.27;;
37885;SDS011;23726;52.520;13.434;2022-07-05T14:39:40;26.17;;;12.05;;
37885;SDS011;23726;52.520;13.434;2022-07-05T14:42:06;24.90;;;11.40;;
37885;SDS011;23726;52.520;13.434;2022-07-05T14:44:33;28.52;;;11.48;;
37885;SDS011;23726;52.520;13.434;2022-07-05T14:46:59;27.15;;;12.32;;
37885;SDS011;23726;52.520;13.434;2022-07-05T14:49:24;25.20;;;11.35;;
37885;SDS011;23726;52.520;13.434;2022-07-05T14:51:50;26.42;;;11.80;;
37885;SDS011;23726;52.520;13.434;2022-07-05T14:54:15;27.05;;;10.88;;
37885;SDS011;23726;52.520;13.434;2022-07-05T14:56:41;27.13;;;11.32;;
37885;SDS011;23726;52.520;13.434;2022-07-05T14:59:06;25.63;;;11.32;;
37885;SDS011;23726;52.520;13.434;2022-07-05T15:01:33;26.33;;;11.82;;
37885;SDS011;23726;52.520;13.434;2022-07-05T15:03:58;22.90;;;11.07;;